sensor_id;sensor_type;location;lat;lon;timestamp;pressure;altitude;pressure_sealevel;temperature;humidity
48622;BME280;34421;48.944;9.460;2023-04-28T00:00:11;98356.31;;;11.12;61.56
48622;BME280;34421;48.944;9.460;2023-04-28T00:02:37;98363.44;;;11.18;62.43
48622;BME280;34421;48.944;9.460;2023-04-28T00:05:02;98356.41;;;11.24;62.32
48622;BME280;34421;48.944;9.460;2023-04-28T00:07:27;98351.47;;;11.28;61.89
48622;BME280;34421;48.944;9.460;2023-04-28T00:09:53;98350.81;;;11.32;61.18
48622;BME280;34421;48.944;9.460;2023-04-28T00:12:18;98337.66;;;11.37;62.39
48622;BME280;34421;48.944;9.460;2023-04-28T00:14:43;98332.25;;;11.44;61.87
48622;BME280;34421;48.944;9.460;2023-04-28T00:17:09;98329.38;;;11.46;61.60
48622;BME280;34421;48.944;9.460;2023-04-28T00:19:34;98329.59;;;11.44;62.28
48622;BME280;34421;48.944;9.460;2023-04-28T00:22:00;98324.25;;;11.44;61.55
48622;BME280;34421;48.944;9.460;2023-04-28T00:24:25;98324.25;;;11.44;62.35
48622;BME280;34421;48.944;9.460;2023-04-28T00:26:50;98325.91;;;11.45;61.83
48622;BME280;34421;48.944;9.460;2023-04-28T00:29:16;98321.75;;;11.49;61.96
48622;BME280;34421;48.944;9.460;2023-04-28T00:31:41;98316.00;;;11.52;61.34
48622;BME280;34421;48.944;9.460;2023-04-28T00:34:06;98313.09;;;11.54;60.86
48622;BME280;34421;48.944;9.460;2023-04-28T00:36:31;98317.16;;;11.56;61.46
48622;BME280;34421;48.944;9.460;2023-04-28T00:38:57;98319.03;;;11.56;60.87
48622;BME280;34421;48.944;9.460;2023-04-28T00:41:22;98322.75;;;11.55;61.10
48622;BME280;34421;48.944;9.460;2023-04-28T00:43:47;98318.59;;;11.59;60.86
48622;BME280;34421;48.944;9.460;2023-04-28T00:46:16;98316.06;;;11.64;61.27
48622;BME280;34421;48.944;9.460;2023-04-28T00:48:43;98314.81;;;11.67;60.31
48622;BME280;34421;48.944;9.460;2023-04-28T00:51:09;98311.91;;;11.68;60.54
48622;BME280;34421;48.944;9.460;2023-04-28T00:53:34;98304.16;;;11.67;60.40
48622;BME280;34421;48.944;9.460;2023-04-28T00:56:00;98304.72;;;11.69;60.94
48622;BME280;34421;48.944;9.460;2023-04-28T00:58:25;98305.13;;;11.72;60.14
48622;BME280;34421;48.944;9.460;2023-04-28T01:00:51;98300.38;;;11.74;60.52
48622;BME280;34421;48.944;9.460;2023-04-28T01:03:16;98311.28;;;11.73;61.18
48622;BME280;34421;48.944;9.460;2023-04-28T01:05:41;98299.19;;;11.70;59.87
48622;BME280;34421;48.944;9.460;2023-04-28T01:08:06;98293.63;;;11.72;60.65
48622;BME280;34421;48.944;9.460;2023-04-28T01:10:32;98279.09;;;11.68;59.90
48622;BME280;34421;48.944;9.460;2023-04-28T01:12:57;98289.56;;;11.69;60.45
48622;BME280;34421;48.944;9.460;2023-04-28T01:15:22;98281.13;;;11.72;59.97
48622;BME280;34421;48.944;9.460;2023-04-28T01:17:47;98283.56;;;11.74;61.09
48622;BME280;34421;48.944;9.460;2023-04-28T01:20:13;98264.06;;;11.73;60.88
48622;BME280;34421;48.944;9.460;2023-04-28T01:22:38;98261.84;;;11.70;60.65
48622;BME280;34421;48.944;9.460;2023-04-28T01:25:04;98260.88;;;11.64;59.98
48622;BME280;34421;48.944;9.460;2023-04-28T01:27:29;98268.72;;;11.59;60.19
48622;BME280;34421;48.944;9.460;2023-04-28T01:29:54;98269.16;;;11.56;61.38
48622;BME280;34421;48.944;9.460;2023-04-28T01:32:21;98275.56;;;11.55;61.36
48622;BME280;34421;48.944;9.460;2023-04-28T01:34:46;98273.50;;;11.57;61.26
48622;BME280;34421;48.944;9.460;2023-04-28T01:37:11;98281.03;;;11.60;60.81
48622;BME280;34421;48.944;9.460;2023-04-28T01:39:36;98280.72;;;11.69;61.47
48622;BME280;34421;48.944;9.460;2023-04-28T01:42:02;98270.81;;;11.76;60.41
48622;BME280;34421;48.944;9.460;2023-04-28T01:44:27;98272.34;;;11.83;61.06
48622;BME280;34421;48.944;9.460;2023-04-28T01:46:52;98274.16;;;11.90;60.73
48622;BME280;34421;48.944;9.460;2023-04-28T01:49:18;98277.22;;;11.93;61.77
48622;BME280;34421;48.944;9.460;2023-04-28T01:51:43;98279.81;;;12.00;61.13
48622;BME280;34421;48.944;9.460;2023-04-28T01:54:08;98262.97;;;11.99;61.10
48622;BME280;34421;48.944;9.460;2023-04-28T01:56:33;98247.63;;;11.95;62.08
48622;BME280;34421;48.944;9.460;2023-04-28T01:58:59;98253.88;;;11.89;62.18
48622;BME280;34421;48.944;9.460;2023-04-28T02:01:24;98263.72;;;11.88;61.65
48622;BME280;34421;48.944;9.460;2023-04-28T02:03:49;98257.34;;;11.89;62.40
48622;BME280;34421;48.944;9.460;2023-04-28T02:06:14;98263.94;;;11.86;62.86
48622;BME280;34421;48.944;9.460;2023-04-28T02:08:40;98248.16;;;11.85;62.59
48622;BME280;34421;48.944;9.460;2023-04-28T02:11:05;98242.19;;;11.83;62.21
48622;BME280;34421;48.944;9.460;2023-04-28T02:13:30;98238.13;;;11.80;62.17
48622;BME280;34421;48.944;9.460;2023-04-28T02:15:55;98240.16;;;11.85;62.00
48622;BME280;34421;48.944;9.460;2023-04-28T02:18:24;98235.44;;;11.87;62.10
48622;BME280;34421;48.944;9.460;2023-04-28T02:20:49;98236.44;;;11.86;63.45
48622;BME280;34421;48.944;9.460;2023-04-28T02:23:14;98243.66;;;11.85;63.48
48622;BME280;34421;48.944;9.460;2023-04-28T02:25:39;98237.25;;;11.86;63.04
48622;BME280;34421;48.944;9.460;2023-04-28T02:28:04;98237.66;;;11.90;62.95
48622;BME280;34421;48.944;9.460;2023-04-28T02:30:30;98240.31;;;11.90;63.82
48622;BME280;34421;48.944;9.460;2023-04-28T02:32:55;98233.34;;;11.89;63.83
48622;BME280;34421;48.944;9.460;2023-04-28T02:35:20;98232.75;;;11.87;63.48
48622;BME280;34421;48.944;9.460;2023-04-28T02:37:46;98240.75;;;11.87;63.41
48622;BME280;34421;48.944;9.460;2023-04-28T02:40:11;98232.31;;;11.90;63.65
48622;BME280;34421;48.944;9.460;2023-04-28T02:42:36;98220.44;;;11.86;63.85
48622;BME280;34421;48.944;9.460;2023-04-28T02:45:01;98225.19;;;11.84;63.55
48622;BME280;34421;48.944;9.460;2023-04-28T02:47:27;98226.81;;;11.85;64.07
48622;BME280;34421;48.944;9.460;2023-04-28T02:49:52;98223.72;;;11.88;64.80
48622;BME280;34421;48.944;9.460;2023-04-28T02:52:17;98225.31;;;11.89;64.57
48622;BME280;34421;48.944;9.460;2023-04-28T02:54:42;98222.09;;;11.87;64.77
48622;BME280;34421;48.944;9.460;2023-04-28T02:57:07;98222.09;;;11.87;64.55
48622;BME280;34421;48.944;9.460;2023-04-28T02:59:33;98211.44;;;11.87;64.60
48622;BME280;34421;48.944;9.460;2023-04-28T03:01:59;98211.84;;;11.84;63.66
48622;BME280;34421;48.944;9.460;2023-04-28T03:04:24;98212.28;;;11.81;64.27
48622;BME280;34421;48.944;9.460;2023-04-28T03:06:49;98218.44;;;11.81;64.57
48622;BME280;34421;48.944;9.460;2023-04-28T03:09:15;98218.19;;;11.83;64.47
48622;BME280;34421;48.944;9.460;2023-04-28T03:11:40;98213.09;;;11.81;64.96
48622;BME280;34421;48.944;9.460;2023-04-28T03:14:05;98220.88;;;11.83;64.93
48622;BME280;34421;48.944;9.460;2023-04-28T03:16:30;98227.44;;;11.87;65.37
48622;BME280;34421;48.944;9.460;2023-04-28T03:18:56;98224.31;;;11.90;65.21
48622;BME280;34421;48.944;9.460;2023-04-28T03:21:21;98217.47;;;11.94;66.18
48622;BME280;34421;48.944;9.460;2023-04-28T03:23:46;98234.28;;;11.95;65.98
48622;BME280;34421;48.944;9.460;2023-04-28T03:26:11;98231.47;;;11.90;65.86
48622;BME280;34421;48.944;9.460;2023-04-28T03:28:36;98230.22;;;11.92;66.20
48622;BME280;34421;48.944;9.460;2023-04-28T03:31:02;98223.03;;;11.93;66.65
48622;BME280;34421;48.944;9.460;2023-04-28T03:33:27;98221.31;;;11.98;66.60
48622;BME280;34421;48.944;9.460;2023-04-28T03:35:52;98212.66;;;12.03;65.79
48622;BME280;34421;48.944;9.460;2023-04-28T03:38:18;98211.94;;;12.07;65.39
48622;BME280;34421;48.944;9.460;2023-04-28T03:40:43;98215.22;;;12.09;65.44
48622;BME280;34421;48.944;9.460;2023-04-28T03:43:09;98211.75;;;12.09;66.72
48622;BME280;34421;48.944;9.460;2023-04-28T03:45:34;98190.50;;;12.02;65.60
48622;BME280;34421;48.944;9.460;2023-04-28T03:47:59;98195.53;;;11.92;66.66
48622;BME280;34421;48.944;9.460;2023-04-28T03:50:24;98197.03;;;11.88;67.02
48622;BME280;34421;48.944;9.460;2023-04-28T03:52:50;98181.84;;;11.89;66.87
48622;BME280;34421;48.944;9.460;2023-04-28T03:55:15;98179.97;;;11.89;66.98
48622;BME280;34421;48.944;9.460;2023-04-28T03:57:40;98186.97;;;11.90;67.67
48622;BME280;34421;48.944;9.460;2023-04-28T04:00:06;98175.69;;;11.88;66.83
48622;BME280;34421;48.944;9.460;2023-04-28T04:02:31;98178.81;;;11.85;68.10
48622;BME280;34421;48.944;9.460;2023-04-28T04:04:56;98180.72;;;11.78;68.30
48622;BME280;34421;48.944;9.460;2023-04-28T04:07:22;98186.50;;;11.75;68.49
48622;BME280;34421;48.944;9.460;2023-04-28T04:09:47;98188.28;;;11.81;67.80
48622;BME280;34421;48.944;9.460;2023-04-28T04:12:12;98194.19;;;11.83;68.82
48622;BME280;34421;48.944;9.460;2023-04-28T04:14:38;98177.75;;;11.86;69.47
48622;BME280;34421;48.944;9.460;2023-04-28T04:17:03;98169.31;;;11.89;69.25
48622;BME280;34421;48.944;9.460;2023-04-28T04:19:28;98174.19;;;11.92;69.28
48622;BME280;34421;48.944;9.460;2023-04-28T04:21:53;98172.13;;;11.94;69.44
48622;BME280;34421;48.944;9.460;2023-04-28T04:24:19;98174.56;;;11.96;70.43
48622;BME280;34421;48.944;9.460;2023-04-28T04:26:44;98166.13;;;11.99;69.46
48622;BME280;34421;48.944;9.460;2023-04-28T04:29:09;98181.69;;;12.02;69.39
48622;BME280;34421;48.944;9.460;2023-04-28T04:31:35;98181.28;;;11.98;70.34
48622;BME280;34421;48.944;9.460;2023-04-28T04:34:00;98181.06;;;12.00;70.36
48622;BME280;34421;48.944;9.460;2023-04-28T04:36:25;98184.78;;;11.99;70.96
48622;BME280;34421;48.944;9.460;2023-04-28T04:38:51;98187.81;;;12.02;70.98
48622;BME280;34421;48.944;9.460;2023-04-28T04:41:17;98190.59;;;12.07;70.35
48622;BME280;34421;48.944;9.460;2023-04-28T04:43:42;98187.06;;;12.14;70.66
48622;BME280;34421;48.944;9.460;2023-04-28T04:46:07;98190.06;;;12.17;70.79
48622;BME280;34421;48.944;9.460;2023-04-28T04:48:32;98190.06;;;12.17;70.27
48622;BME280;34421;48.944;9.460;2023-04-28T04:50:57;98193.09;;;12.21;70.31
48622;BME280;34421;48.944;9.460;2023-04-28T04:53:23;98188.81;;;12.20;71.17
48622;BME280;34421;48.944;9.460;2023-04-28T04:55:48;98193.09;;;12.21;70.24
48622;BME280;34421;48.944;9.460;2023-04-28T04:58:13;98183.47;;;12.20;71.03
48622;BME280;34421;48.944;9.460;2023-04-28T05:00:38;98189.16;;;12.23;71.01
48622;BME280;34421;48.944;9.460;2023-04-28T05:03:04;98195.44;;;12.29;70.77
48622;BME280;34421;48.944;9.460;2023-04-28T05:05:30;98191.28;;;12.33;70.24
48622;BME280;34421;48.944;9.460;2023-04-28T05:07:55;98172.59;;;12.33;69.87
48622;BME280;34421;48.944;9.460;2023-04-28T05:10:20;98184.66;;;12.36;70.19
48622;BME280;34421;48.944;9.460;2023-04-28T05:12:46;98177.13;;;12.32;70.32
48622;BME280;34421;48.944;9.460;2023-04-28T05:15:11;98174.34;;;12.39;70.59
48622;BME280;34421;48.944;9.460;2023-04-28T05:17:36;98158.81;;;12.48;70.43
48622;BME280;34421;48.944;9.460;2023-04-28T05:20:02;98150.22;;;12.58;70.46
48622;BME280;34421;48.944;9.460;2023-04-28T05:22:27;98166.25;;;12.69;70.59
48622;BME280;34421;48.944;9.460;2023-04-28T05:24:52;98171.50;;;12.76;69.95
48622;BME280;34421;48.944;9.460;2023-04-28T05:27:18;98177.88;;;12.75;70.57
48622;BME280;34421;48.944;9.460;2023-04-28T05:29:43;98174.59;;;12.73;70.88
48622;BME280;34421;48.944;9.460;2023-04-28T05:32:08;98174.41;;;12.74;70.90
48622;BME280;34421;48.944;9.460;2023-04-28T05:34:33;98172.66;;;12.80;70.69
48622;BME280;34421;48.944;9.460;2023-04-28T05:36:59;98169.75;;;12.82;70.78
48622;BME280;34421;48.944;9.460;2023-04-28T05:39:25;98170.00;;;12.80;70.91
48622;BME280;34421;48.944;9.460;2023-04-28T05:41:50;98171.59;;;12.81;70.81
48622;BME280;34421;48.944;9.460;2023-04-28T05:44:15;98164.31;;;12.88;71.05
48622;BME280;34421;48.944;9.460;2023-04-28T05:46:40;98159.06;;;12.93;71.43
48622;BME280;34421;48.944;9.460;2023-04-28T05:49:06;98166.03;;;12.94;71.47
48622;BME280;34421;48.944;9.460;2023-04-28T05:51:31;98161.97;;;12.92;72.00
48622;BME280;34421;48.944;9.460;2023-04-28T05:53:57;98173.13;;;12.89;71.52
48622;BME280;34421;48.944;9.460;2023-04-28T05:56:22;98167.78;;;12.89;72.20
48622;BME280;34421;48.944;9.460;2023-04-28T05:58:48;98163.84;;;12.91;71.62
48622;BME280;34421;48.944;9.460;2023-04-28T06:01:14;98165.31;;;12.99;71.74
48622;BME280;34421;48.944;9.460;2023-04-28T06:03:40;98170.91;;;13.09;71.95
48622;BME280;34421;48.944;9.460;2023-04-28T06:06:06;98166.13;;;13.23;72.21
48622;BME280;34421;48.944;9.460;2023-04-28T06:08:31;98171.81;;;13.38;71.84
48622;BME280;34421;48.944;9.460;2023-04-28T06:10:56;98172.25;;;13.47;71.53
48622;BME280;34421;48.944;9.460;2023-04-28T06:13:22;98168.41;;;13.55;71.70
48622;BME280;34421;48.944;9.460;2023-04-28T06:15:47;98172.25;;;13.59;71.72
48622;BME280;34421;48.944;9.460;2023-04-28T06:18:12;98170.97;;;13.61;71.95
48622;BME280;34421;48.944;9.460;2023-04-28T06:20:37;98170.25;;;13.66;71.90
48622;BME280;34421;48.944;9.460;2023-04-28T06:23:02;98168.13;;;13.68;72.25
48622;BME280;34421;48.944;9.460;2023-04-28T06:25:28;98167.66;;;13.71;71.96
48622;BME280;34421;48.944;9.460;2023-04-28T06:27:53;98178.47;;;13.76;72.27
48622;BME280;34421;48.944;9.460;2023-04-28T06:30:21;98185.81;;;13.81;72.44
48622;BME280;34421;48.944;9.460;2023-04-28T06:32:47;98178.31;;;13.83;72.73
48622;BME280;34421;48.944;9.460;2023-04-28T06:35:12;98183.19;;;13.86;73.06
48622;BME280;34421;48.944;9.460;2023-04-28T06:37:37;98175.53;;;13.89;73.08
48622;BME280;34421;48.944;9.460;2023-04-28T06:40:03;98168.06;;;13.91;73.25
48622;BME280;34421;48.944;9.460;2023-04-28T06:42:28;98177.00;;;13.97;73.28
48622;BME280;34421;48.944;9.460;2023-04-28T06:44:53;98169.41;;;14.06;73.09
48622;BME280;34421;48.944;9.460;2023-04-28T06:47:19;98171.38;;;14.10;72.93
48622;BME280;34421;48.944;9.460;2023-04-28T06:49:44;98169.50;;;14.11;72.83
48622;BME280;34421;48.944;9.460;2023-04-28T06:52:11;98169.72;;;14.09;72.44
48622;BME280;34421;48.944;9.460;2023-04-28T06:54:38;98164.84;;;14.06;72.77
48622;BME280;34421;48.944;9.460;2023-04-28T06:57:03;98160.72;;;13.99;73.16
48622;BME280;34421;48.944;9.460;2023-04-28T06:59:28;98167.03;;;13.93;73.70
48622;BME280;34421;48.944;9.460;2023-04-28T07:01:53;98160.75;;;13.87;73.68
48622;BME280;34421;48.944;9.460;2023-04-28T07:04:19;98153.44;;;13.82;74.27
48622;BME280;34421;48.944;9.460;2023-04-28T07:06:44;98151.00;;;13.81;74.45
48622;BME280;34421;48.944;9.460;2023-04-28T07:09:09;98163.09;;;13.83;74.29
48622;BME280;34421;48.944;9.460;2023-04-28T07:11:35;98169.75;;;13.81;74.55
48622;BME280;34421;48.944;9.460;2023-04-28T07:14:00;98172.41;;;13.81;74.38
48622;BME280;34421;48.944;9.460;2023-04-28T07:16:26;98139.72;;;13.79;74.90
48622;BME280;34421;48.944;9.460;2023-04-28T07:18:51;98129.50;;;13.76;75.14
48622;BME280;34421;48.944;9.460;2023-04-28T07:21:16;98139.13;;;13.77;75.23
48622;BME280;34421;48.944;9.460;2023-04-28T07:23:41;98136.38;;;13.72;75.25
48622;BME280;34421;48.944;9.460;2023-04-28T07:26:07;98131.59;;;13.74;75.23
48622;BME280;34421;48.944;9.460;2023-04-28T07:28:32;98130.78;;;13.73;75.52
48622;BME280;34421;48.944;9.460;2023-04-28T07:30:57;98141.81;;;13.77;75.74
48622;BME280;34421;48.944;9.460;2023-04-28T07:33:23;98142.50;;;13.84;75.34
48622;BME280;34421;48.944;9.460;2023-04-28T07:35:49;98145.03;;;13.90;75.57
48622;BME280;34421;48.944;9.460;2023-04-28T07:38:16;98167.56;;;13.95;74.84
48622;BME280;34421;48.944;9.460;2023-04-28T07:40:42;98156.88;;;13.95;75.17
48622;BME280;34421;48.944;9.460;2023-04-28T07:43:08;98146.75;;;13.97;74.84
48622;BME280;34421;48.944;9.460;2023-04-28T07:45:38;98143.59;;;14.00;75.32
48622;BME280;34421;48.944;9.460;2023-04-28T07:48:03;98142.31;;;14.02;75.41
48622;BME280;34421;48.944;9.460;2023-04-28T07:50:28;98142.63;;;14.06;75.05
48622;BME280;34421;48.944;9.460;2023-04-28T07:52:54;98145.31;;;14.06;75.16
48622;BME280;34421;48.944;9.460;2023-04-28T07:55:19;98142.47;;;14.12;74.80
48622;BME280;34421;48.944;9.460;2023-04-28T07:57:46;98154.66;;;14.20;74.95
48622;BME280;34421;48.944;9.460;2023-04-28T08:00:13;98162.69;;;14.20;75.26
48622;BME280;34421;48.944;9.460;2023-04-28T08:02:38;98157.09;;;14.22;75.91
48622;BME280;34421;48.944;9.460;2023-04-28T08:05:04;98161.16;;;14.24;75.73
48622;BME280;34421;48.944;9.460;2023-04-28T08:07:31;98159.75;;;14.22;75.71
48622;BME280;34421;48.944;9.460;2023-04-28T08:09:56;98156.84;;;14.23;75.01
48622;BME280;34421;48.944;9.460;2023-04-28T08:12:21;98162.84;;;14.30;75.68
48622;BME280;34421;48.944;9.460;2023-04-28T08:14:46;98171.00;;;14.35;75.21
48622;BME280;34421;48.944;9.460;2023-04-28T08:17:12;98169.13;;;14.36;75.17
48622;BME280;34421;48.944;9.460;2023-04-28T08:19:37;98173.50;;;14.42;75.70
48622;BME280;34421;48.944;9.460;2023-04-28T08:22:03;98166.22;;;14.54;75.76
48622;BME280;34421;48.944;9.460;2023-04-28T08:24:31;98170.97;;;14.64;75.64
48622;BME280;34421;48.944;9.460;2023-04-28T08:26:59;98168.53;;;14.79;75.18
48622;BME280;34421;48.944;9.460;2023-04-28T08:29:24;98169.22;;;14.92;75.28
48622;BME280;34421;48.944;9.460;2023-04-28T08:31:50;98162.97;;;15.03;75.22
48622;BME280;34421;48.944;9.460;2023-04-28T08:34:15;98159.03;;;15.11;74.94
48622;BME280;34421;48.944;9.460;2023-04-28T08:36:40;98164.75;;;15.14;74.74
48622;BME280;34421;48.944;9.460;2023-04-28T08:39:05;98172.19;;;15.29;75.19
48622;BME280;34421;48.944;9.460;2023-04-28T08:41:32;98166.44;;;15.42;74.69
48622;BME280;34421;48.944;9.460;2023-04-28T08:44:01;98167.25;;;15.43;74.88
48622;BME280;34421;48.944;9.460;2023-04-28T08:46:30;98167.91;;;15.50;74.93
48622;BME280;34421;48.944;9.460;2023-04-28T08:48:58;98165.25;;;15.55;74.59
48622;BME280;34421;48.944;9.460;2023-04-28T08:51:34;98157.91;;;15.67;73.52
48622;BME280;34421;48.944;9.460;2023-04-28T08:54:01;98166.66;;;15.80;73.51
48622;BME280;34421;48.944;9.460;2023-04-28T08:56:30;98174.22;;;15.83;73.79
48622;BME280;34421;48.944;9.460;2023-04-28T08:58:56;98176.91;;;15.83;73.00
48622;BME280;34421;48.944;9.460;2023-04-28T09:01:24;98177.19;;;15.86;73.77
48622;BME280;34421;48.944;9.460;2023-04-28T09:03:49;98189.91;;;15.96;72.66
48622;BME280;34421;48.944;9.460;2023-04-28T09:06:15;98186.00;;;16.09;72.50
48622;BME280;34421;48.944;9.460;2023-04-28T09:08:40;98187.53;;;16.27;72.47
48622;BME280;34421;48.944;9.460;2023-04-28T09:11:08;98196.16;;;16.29;72.59
48622;BME280;34421;48.944;9.460;2023-04-28T09:13:34;98188.16;;;16.34;72.35
48622;BME280;34421;48.944;9.460;2023-04-28T09:16:00;98194.25;;;16.51;71.36
48622;BME280;34421;48.944;9.460;2023-04-28T09:18:27;98187.75;;;16.79;71.14
48622;BME280;34421;48.944;9.460;2023-04-28T09:21:01;98188.75;;;17.05;71.08
48622;BME280;34421;48.944;9.460;2023-04-28T09:23:26;98186.88;;;17.06;70.63
48622;BME280;34421;48.944;9.460;2023-04-28T09:25:55;98186.84;;;17.01;69.89
48622;BME280;34421;48.944;9.460;2023-04-28T09:28:20;98180.88;;;16.94;70.24
48622;BME280;34421;48.944;9.460;2023-04-28T09:30:46;98195.09;;;16.89;70.07
48622;BME280;34421;48.944;9.460;2023-04-28T09:33:11;98188.16;;;16.93;70.29
48622;BME280;34421;48.944;9.460;2023-04-28T09:35:43;98187.06;;;16.94;70.38
48622;BME280;34421;48.944;9.460;2023-04-28T09:38:12;98177.34;;;16.88;70.32
48622;BME280;34421;48.944;9.460;2023-04-28T09:43:26;98175.31;;;17.05;69.78
48622;BME280;34421;48.944;9.460;2023-04-28T09:45:52;98162.66;;;17.06;69.85
48622;BME280;34421;48.944;9.460;2023-04-28T09:48:25;98149.31;;;17.21;70.46
48622;BME280;34421;48.944;9.460;2023-04-28T09:50:50;98157.78;;;17.50;69.41
48622;BME280;34421;48.944;9.460;2023-04-28T09:53:17;98163.03;;;17.77;68.91
48622;BME280;34421;48.944;9.460;2023-04-28T09:55:43;98158.03;;;18.12;69.08
48622;BME280;34421;48.944;9.460;2023-04-28T09:58:10;98164.50;;;18.31;67.97
48622;BME280;34421;48.944;9.460;2023-04-28T10:00:37;98166.13;;;18.32;67.75
48622;BME280;34421;48.944;9.460;2023-04-28T10:03:03;98168.28;;;18.30;67.92
48622;BME280;34421;48.944;9.460;2023-04-28T10:05:28;98173.38;;;18.32;67.98
48622;BME280;34421;48.944;9.460;2023-04-28T10:07:55;98174.75;;;18.34;67.82
48622;BME280;34421;48.944;9.460;2023-04-28T10:10:20;98169.06;;;18.15;67.36
48622;BME280;34421;48.944;9.460;2023-04-28T10:12:46;98165.53;;;17.99;67.91
48622;BME280;34421;48.944;9.460;2023-04-28T10:15:11;98163.34;;;17.91;68.26
48622;BME280;34421;48.944;9.460;2023-04-28T10:17:37;98155.75;;;17.78;68.82
48622;BME280;34421;48.944;9.460;2023-04-28T10:20:03;98168.88;;;17.69;69.21
48622;BME280;34421;48.944;9.460;2023-04-28T10:27:29;98167.78;;;17.55;69.54
48622;BME280;34421;48.944;9.460;2023-04-28T10:30:08;98167.03;;;17.70;69.77
48622;BME280;34421;48.944;9.460;2023-04-28T10:32:33;98163.88;;;17.88;69.13
48622;BME280;34421;48.944;9.460;2023-04-28T10:40:33;98161.00;;;18.31;68.90
48622;BME280;34421;48.944;9.460;2023-04-28T10:42:59;98161.81;;;18.36;69.17
48622;BME280;34421;48.944;9.460;2023-04-28T10:48:08;98158.59;;;18.44;68.65
48622;BME280;34421;48.944;9.460;2023-04-28T10:50:33;98161.28;;;18.44;68.79
48622;BME280;34421;48.944;9.460;2023-04-28T10:53:01;98169.09;;;18.46;69.18
48622;BME280;34421;48.944;9.460;2023-04-28T10:55:27;98165.09;;;18.74;68.73
48622;BME280;34421;48.944;9.460;2023-04-28T11:00:39;98166.50;;;19.72;67.07
48622;BME280;34421;48.944;9.460;2023-04-28T11:03:04;98157.19;;;19.99;66.08
48622;BME280;34421;48.944;9.460;2023-04-28T11:05:30;98158.75;;;20.05;65.66
48622;BME280;34421;48.944;9.460;2023-04-28T11:11:10;98160.38;;;20.45;65.18
48622;BME280;34421;48.944;9.460;2023-04-28T11:13:29;98158.44;;;20.51;63.84
48622;BME280;34421;48.944;9.460;2023-04-28T11:16:01;98159.00;;;20.48;64.14
48622;BME280;34421;48.944;9.460;2023-04-28T11:18:27;98168.44;;;20.51;64.50
48622;BME280;34421;48.944;9.460;2023-04-28T11:20:52;98161.16;;;20.46;64.88
48622;BME280;34421;48.944;9.460;2023-04-28T11:23:21;98167.53;;;20.26;65.00
48622;BME280;34421;48.944;9.460;2023-04-28T11:25:54;98174.44;;;20.03;65.75
48622;BME280;34421;48.944;9.460;2023-04-28T11:28:20;98171.28;;;19.86;66.30
48622;BME280;34421;48.944;9.460;2023-04-28T11:30:45;98174.06;;;19.70;66.04
48622;BME280;34421;48.944;9.460;2023-04-28T11:33:10;98176.25;;;19.53;67.11
48622;BME280;34421;48.944;9.460;2023-04-28T11:35:42;98176.00;;;19.49;66.91
48622;BME280;34421;48.944;9.460;2023-04-28T11:38:07;98168.47;;;19.46;66.89
48622;BME280;34421;48.944;9.460;2023-04-28T11:40:33;98159.03;;;19.39;67.77
48622;BME280;34421;48.944;9.460;2023-04-28T11:42:58;98160.09;;;19.43;67.20
48622;BME280;34421;48.944;9.460;2023-04-28T11:45:24;98161.72;;;19.39;67.93
48622;BME280;34421;48.944;9.460;2023-04-28T11:47:49;98160.38;;;19.36;68.23
48622;BME280;34421;48.944;9.460;2023-04-28T11:50:14;98158.47;;;19.42;68.30
48622;BME280;34421;48.944;9.460;2023-04-28T11:52:49;98155.16;;;19.60;68.13
48622;BME280;34421;48.944;9.460;2023-04-28T11:55:17;98156.34;;;19.98;67.35
48622;BME280;34421;48.944;9.460;2023-04-28T11:57:43;98153.72;;;20.27;66.96
48622;BME280;34421;48.944;9.460;2023-04-28T12:00:14;98150.69;;;20.39;67.37
48622;BME280;34421;48.944;9.460;2023-04-28T12:02:45;98151.19;;;20.46;67.00
48622;BME280;34421;48.944;9.460;2023-04-28T12:05:10;98152.25;;;20.45;67.25
48622;BME280;34421;48.944;9.460;2023-04-28T12:07:43;98153.38;;;20.39;66.61
48622;BME280;34421;48.944;9.460;2023-04-28T12:10:09;98158.81;;;20.34;67.00
48622;BME280;34421;48.944;9.460;2023-04-28T12:12:34;98155.41;;;20.23;66.45
48622;BME280;34421;48.944;9.460;2023-04-28T12:15:00;98153.88;;;20.07;66.80
48622;BME280;34421;48.944;9.460;2023-04-28T12:17:27;98160.47;;;19.91;67.81
48622;BME280;34421;48.944;9.460;2023-04-28T12:19:53;98167.53;;;19.82;68.17
48622;BME280;34421;48.944;9.460;2023-04-28T12:22:18;98165.06;;;19.90;68.70
48622;BME280;34421;48.944;9.460;2023-04-28T12:24:43;98161.50;;;19.95;68.59
48622;BME280;34421;48.944;9.460;2023-04-28T12:27:17;98157.38;;;20.08;68.49
48622;BME280;34421;48.944;9.460;2023-04-28T12:29:44;98152.75;;;20.13;68.47
48622;BME280;34421;48.944;9.460;2023-04-28T12:32:10;98161.31;;;20.25;68.00
48622;BME280;34421;48.944;9.460;2023-04-28T12:34:36;98153.69;;;20.38;68.55
48622;BME280;34421;48.944;9.460;2023-04-28T12:37:02;98158.75;;;20.44;68.38
48622;BME280;34421;48.944;9.460;2023-04-28T12:39:27;98167.75;;;20.35;68.28
48622;BME280;34421;48.944;9.460;2023-04-28T12:41:52;98168.38;;;20.21;67.96
48622;BME280;34421;48.944;9.460;2023-04-28T12:44:23;98175.50;;;20.07;68.40
48622;BME280;34421;48.944;9.460;2023-04-28T12:46:48;98178.84;;;19.89;68.55
48622;BME280;34421;48.944;9.460;2023-04-28T12:49:13;98185.94;;;19.59;68.50
48622;BME280;34421;48.944;9.460;2023-04-28T12:51:39;98187.16;;;19.22;69.58
48622;BME280;34421;48.944;9.460;2023-04-28T12:54:05;98176.69;;;18.95;70.40
48622;BME280;34421;48.944;9.460;2023-04-28T12:56:30;98182.34;;;18.78;70.84
48622;BME280;34421;48.944;9.460;2023-04-28T12:58:56;98199.03;;;18.60;71.71
48622;BME280;34421;48.944;9.460;2023-04-28T13:01:21;98192.56;;;18.35;71.88
48622;BME280;34421;48.944;9.460;2023-04-28T13:03:46;98195.47;;;18.18;72.39
48622;BME280;34421;48.944;9.460;2023-04-28T13:06:12;98184.66;;;18.08;72.23
48622;BME280;34421;48.944;9.460;2023-04-28T13:08:37;98178.47;;;18.08;72.62
48622;BME280;34421;48.944;9.460;2023-04-28T13:11:03;98180.09;;;18.04;71.67
48622;BME280;34421;48.944;9.460;2023-04-28T13:13:29;98171.44;;;18.02;72.28